• Join FlightAware (Why Join?)
  • Login
  • US Flag 
11:27PM EDT


 

Airport Tracker/Info


-or-


 

Live Flight TrackerFlight Track Log ✈ UAL4093 ✈ 14-Apr-2013 ✈ KOMA - KEWR

Flight Track Log - Related Links

Times and Time Zones

All times are in EDT time to prevent confusion due to time zone crossing. See the UAL4093 flight status page for this flight to view local times or setup timezone preferences in your user account.

Time Position Orientation Groundspeed Altitude Reporting Facility
EDT Latitude Longitude Course Direction KTS MPH feet Rate Location/Type
05:22PM 41.3131 -95.9119 86° East 174 200 1,300  Level Minneapolis Center
05:22PM 41.3261 -95.9186 339° North 170 196 2,000 1,920 Climbing Minneapolis Center
05:23PM 41.3689 -95.9106 North 223 257 3,600 1,980 Climbing Minneapolis Center
05:24PM 41.4028 -95.8322 60° Northeast 260 299 5,800 2,400 Climbing Minneapolis Center
05:25PM 41.3404 -95.2755 84° East  Level FlightAware Approximate
05:25PM 41.4056 -95.7267 88° East 275 316 8,600  Level Minneapolis Center
05:26PM 41.3515 -95.1231 86° East  Level FlightAware Approximate
05:26PM 41.4081 -95.6175 88° East 285 328 10,900  Level Minneapolis Center
05:27PM 41.3601 -94.9704 86° East  Level FlightAware Approximate
05:27PM 41.4106 -95.4992 88° East 300 345 13,300  Level Minneapolis Center
05:28PM 41.4131 -95.3503 89° East 332 382 15,000 780 Climbing Minneapolis Center
05:29PM 41.4153 -95.2064 89° East 379 436 15,000  Level Minneapolis Center
05:30PM 41.4183 -95.0528 88° East 408 470 15,000 540 Level Minneapolis Center
05:31PM 41.4206 -94.8994 89° East 396 456 16,200 1,560 Climbing Minneapolis Center
05:32PM 41.4247 -94.7569 88° East 405 466 18,200 1,680 Climbing Minneapolis Center
05:33PM 41.4456 -94.6008 80° East 424 488 19,700 1,320 Climbing Minneapolis Center
05:34PM 41.4689 -94.4400 79° East 438 504 21,300 1,680 Climbing Minneapolis Center
05:35PM 41.4881 -94.2103 84° East 446 513 23,500 1,800 Climbing Minneapolis Center
05:36PM 41.5017 -94.0656 83° East 445 512 25,000 1,560 Climbing Minneapolis Center
05:37PM 41.5156 -93.9031 83° East 444 511 26,800 1,740 Climbing Minneapolis Center
05:38PM 41.5294 -93.7456 83° East 436 502 28,600 1,800 Climbing Minneapolis Center
05:39PM 41.5461 -93.5617 83° East 424 488 30,600 1,680 Climbing Minneapolis Center
05:40PM 41.5589 -93.4086 84° East 419 482 32,100 1,440 Climbing Minneapolis Center
05:41PM 41.5711 -93.2594 84° East 411 473 33,600 1,440 Climbing Minneapolis Center
05:42PM 41.5833 -93.1156 83° East 400 460 35,100 1,260 Climbing Minneapolis Center
05:43PM 41.5947 -92.9767 84° East 387 445 36,200 780 Climbing Minneapolis Center
05:44PM 41.6056 -92.8408 84° East 376 433 36,800 360 Climbing Minneapolis Center
05:45PM 41.6192 -92.6728 84° East 379 436 37,000 60 Climbing Minneapolis Center
05:47PM 41.6311 -92.5269 84° East 389 448 37,000  Level Minneapolis Center
05:48PM 41.6425 -92.3733 84° East 405 466 37,000  Level Minneapolis Center
05:49PM 41.6556 -92.1906 84° East 436 502 37,000  Level Chicago Center
05:50PM 41.6672 -92.0253 85° East 448 516 37,000  Level Chicago Center
05:51PM 41.6794 -91.8558 84° East 460 529 37,000  Level Chicago Center
05:52PM 41.6936 -91.6494 85° East 469 540 37,000  Level Chicago Center
05:53PM 41.7058 -91.4750 85° East 475 547 37,000  Level Chicago Center
05:54PM 41.7164 -91.3044 85° East 471 542 37,000  Level Chicago Center
05:55PM 41.7272 -91.1314 85° East 471 542 37,000  Level Chicago Center
05:56PM 41.7408 -90.9236 85° East 473 544 37,000  Level Chicago Center
05:57PM 41.7517 -90.7475 85° East 480 552 37,000  Level Chicago Center
05:58PM 41.7608 -90.5733 86° East 485 558 37,000  Level Chicago Center
05:59PM 41.7728 -90.3928 85° East 487 560 37,000  Level Chicago Center
06:00PM 41.7825 -90.2111 86° East 487 560 37,000  Level Chicago Center
06:01PM 41.7925 -90.0297 86° East 487 560 37,000  Level Chicago Center
06:02PM 41.8028 -89.8242 86° East 474 545 37,000  Level Chicago Center
06:03PM 41.8131 -89.6469 85° East 477 549 37,000  Level Chicago Center
06:04PM 41.8214 -89.4678 86° East 483 556 37,000  Level Chicago Center
06:05PM 41.8306 -89.2875 86° East 486 559 37,000  Level Chicago Center
06:06PM 41.8381 -89.1072 87° East 487 560 37,000  Level Chicago Center
06:07PM 41.8486 -88.8894 86° East 489 563 37,000  Level Chicago Center
06:08PM 41.8558 -88.7086 87° East 486 559 37,000  Level Chicago Center
06:09PM 41.8636 -88.5278 87° East 486 559 37,000  Level Chicago Center
06:10PM 41.8711 -88.3467 87° East 486 559 37,000  Level Chicago Center
06:11PM 41.8781 -88.1642 87° East 488 562 37,000  Level Chicago Center
06:12PM 41.8836 -87.9822 88° East 487 560 37,000  Level Chicago Center
06:13PM 41.8911 -87.7989 87° East 490 564 37,000  Level Chicago Center
06:15PM 41.8981 -87.5789 87° East 491 565 37,000  Level Chicago Center
06:16PM 41.9042 -87.3931 87° East 497 572 37,000  Level Chicago Center
06:17PM 41.9094 -87.2069 88° East 501 577 37,000  Level Chicago Center
06:18PM 41.9150 -87.0233 88° East 495 570 37,000  Level Chicago Center
06:19PM 41.9186 -86.8389 88° East 496 571 37,000  Level Chicago Center
06:20PM 41.9247 -86.6272 88° East 495 570 37,000  Level Chicago Center
06:21PM 41.9286 -86.4433 88° East 495 570 37,000  Level Chicago Center
06:22PM 41.9339 -86.2606 88° East 494 568 37,000  Level Chicago Center
06:23PM 41.9361 -86.0767 89° East 492 566 37,000  Level Chicago Center
06:24PM 41.9400 -85.8931 88° East 493 567 37,000  Level Chicago Center
06:25PM 41.9442 -85.7064 88° East 496 571 37,000  Level Chicago Center
06:26PM 41.9472 -85.5167 89° East 502 578 37,000  Level Chicago Center
06:27PM 41.9503 -85.2900 89° East 500 575 37,000  Level Chicago Center
06:27PM 41.9550 -85.2383 83° East 494 568 37,000  Level Cleveland Center
06:28PM 41.9542 -85.0511 90° East 499 574 37,000 -300 Level Cleveland Center
06:29PM 41.9528 -84.8694 91° East 492 566 36,400 -840 Descending Cleveland Center
06:30PM 41.9514 -84.6794 90° East 499 574 35,400 -1,440 Descending Cleveland Center
06:31PM 41.9494 -84.4950 91° East 499 574 33,600 -1,800 Descending Cleveland Center
06:32PM 41.9489 -84.3247 90° East 478 550 31,900 -1,320 Descending Cleveland Center
06:33PM 41.9403 -84.1342 93° East 467 537 31,000 -480 Descending Cleveland Center
06:34PM 41.9394 -83.9583 90° East 467 537 31,000  Level Cleveland Center
06:35PM 41.9361 -83.7794 91° East 467 537 31,000  Level Cleveland Center
06:36PM 41.9347 -83.6061 91° East 467 537 31,000  Level Cleveland Center
06:37PM 41.9306 -83.4469 92° East 473 544 31,000  Level Cleveland Center
06:38PM 41.9325 -83.2711 89° East 468 539 31,000  Level Cleveland Center
06:39PM 41.9303 -83.0953 91° East 468 539 31,000  Level Cleveland Center
06:40PM 41.9300 -82.9164 90° East 468 539 31,000  Level Cleveland Center
06:41PM 41.9272 -82.7406 91° East 473 544 31,000  Level Cleveland Center
06:42PM 41.9261 -82.5675 90° East 473 544 31,000  Level Cleveland Center
06:43PM 41.9247 -82.3917 91° East 473 544 31,000  Level Cleveland Center
06:44PM 41.9233 -82.2128 91° East 473 544 31,000  Level Cleveland Center
06:45PM 41.9197 -82.0203 91° East 473 544 31,000  Level Cleveland Center
06:46PM 41.9156 -81.8417 92° East 478 550 31,000  Level Cleveland Center
06:47PM 41.9028 -81.6628 95° East 483 556 31,000  Level Cleveland Center
06:48PM 41.8856 -81.4839 97° East 478 550 31,000  Level Cleveland Center
06:49PM 41.8681 -81.3081 98° East 483 556 31,000  Level Cleveland Center
06:50PM 41.8544 -81.1464 96° East 478 550 31,000  Level Cleveland Center
06:51PM 41.8364 -80.9706 98° East 483 556 31,000  Level Cleveland Center
06:52PM 41.8200 -80.7894 97° East 483 556 31,000  Level Cleveland Center
06:53PM 41.8036 -80.6111 97° East 483 556 31,000  Level Cleveland Center
06:54PM 41.7847 -80.4328 98° East 483 556 31,000  Level Cleveland Center
06:55PM 41.7678 -80.2492 97° East 483 556 31,000  Level Cleveland Center
06:56PM 41.7461 -80.0544 98° East 483 556 31,000  Level Cleveland Center
06:57PM 41.7286 -79.8736 97° East 493 567 31,000  Level Cleveland Center
06:58PM 41.7083 -79.6903 98° East 493 567 31,000 -240 Level Cleveland Center
06:59PM 41.6922 -79.5125 97° East 485 558 30,600 -660 Descending Cleveland Center
07:00PM 41.6717 -79.3322 99° East 485 558 29,700 -840 Descending Cleveland Center
07:01PM 41.6486 -79.1464 99° East 491 565 29,000 -360 Descending Cleveland Center
07:02PM 41.6297 -78.9664 98° East 496 571 29,000  Level Cleveland Center
07:03PM 41.6081 -78.7808 99° East 496 571 29,000  Level Cleveland Center
07:04PM 41.5883 -78.5981 98° East 502 578 29,000  Level Cleveland Center
07:06PM 41.5492 -78.2722 99° East 487 560 29,000  Level New York Center
07:07PM 41.5272 -78.0869 99° East 510 587 29,000  Level New York Center
07:08PM 41.5011 -77.8983 100° East 504 580 29,000 -240 Level New York Center
07:09PM 41.4767 -77.7128 100° East 509 586 28,600 -420 Descending New York Center
07:10PM 41.4500 -77.5275 101° East 509 586 28,200 -300 Descending New York Center
07:11PM 41.4208 -77.3392 102° East 514 592 28,000 -120 Descending New York Center
07:12PM 41.3936 -77.1539 101° East 514 592 28,000 -300 Level New York Center
07:13PM 41.3658 -76.9686 101° East 514 592 27,400 -840 Descending New York Center
07:14PM 41.3375 -76.7892 102° East 514 592 26,400 -1,140 Descending New York Center
07:15PM 41.2942 -76.6169 108° East 504 580 25,200 -1,320 Descending New York Center
07:16PM 41.2483 -76.4472 110° East 493 567 23,800 -1,860 Descending New York Center
07:17PM 41.2039 -76.2808 109° East 482 555 21,500 -2,580 Descending New York Center
07:18PM 41.1633 -76.1231 109° East 462 532 18,800 -2,340 Descending New York Center
07:19PM 41.1219 -75.9739 110° East 447 514 16,900 -1,740 Descending New York Center
07:20PM 41.0806 -75.8247 110° East 432 497 15,300 -1,620 Descending New York Center
07:21PM 41.0467 -75.6931 109° East 432 497 13,800 -1,380 Descending New York Center
07:22PM 41.0011 -75.5331 111° Southeast 427 491 12,700 -1,440 Descending New York Center
07:23PM 40.9625 -75.4039 112° Southeast 417 480 10,900 -1,380 Descending New York Center
07:24PM 40.9258 -75.2694 110° East 373 429 10,000 -1,200 Descending New York Center
07:25PM 40.8947 -75.1550 110° East 339 390 8,600 -1,380 Descending New York Center
07:26PM 40.8633 -75.0486 111° Southeast 321 369 7,300 -840 Descending New York Center
07:27PM 40.8519 -74.9547 99° East 298 343 7,000 -180 Descending New York Center
07:28PM 40.8500 -74.8339 91° East 293 337 7,000 -480 Level New York Center
07:29PM 40.8719 -74.7444 72° East 283 326 6,100 -540 Descending New York Center
07:30PM 40.8694 -74.6319 92° East 272 313 6,000 -120 Descending New York Center
07:31PM 40.8500 -74.5833 118° Southeast 283 326 6,000  Level New York TRACON
07:32PM 40.7833 -74.5500 159° South 273 314 6,000 -480 Level New York TRACON
07:33PM 40.7167 -74.5500 180° South 251 289 5,100 -540 Descending New York TRACON
07:34PM 40.6500 -74.5667 191° South 258 297 5,000 -60 Descending New York TRACON
07:35PM 40.5833 -74.5167 150° Southeast 275 316 5,000 -600 Level New York TRACON
07:36PM 40.5167 -74.4833 159° South 255 293 3,900 -1,020 Descending New York TRACON
07:37PM 40.4833 -74.4000 118° Southeast 264 304 3,000 -480 Descending New York TRACON
07:38PM 40.5000 -74.3333 72° East 229 264 3,000  Level New York TRACON
07:38PM 40.5333 -74.2667 57° Northeast 230 265 3,000 -540 Level New York TRACON
07:40PM 40.6000 -74.2333 21° North 191 220 2,000 -900 Descending New York TRACON
07:41PM 40.6333 -74.2000 37° Northeast 138 159 1,200 -840 Descending New York TRACON
07:41PM 40.6667 -74.1833 21° North 135 155 500 -780 Descending New York TRACON